createdAt,value
2022-11-17T00:00:20.200Z,13.90
2022-11-17T00:03:05.867Z,13.70
2022-11-17T00:05:51.333Z,13.70
2022-11-17T00:08:37.032Z,13.70
2022-11-17T00:11:22.499Z,13.60
2022-11-17T00:14:30.577Z,13.60
2022-11-17T00:17:16.147Z,13.60
2022-11-17T00:20:20.107Z,13.50
2022-11-17T00:23:06.823Z,13.60
2022-11-17T00:25:52.297Z,13.50
2022-11-17T00:28:37.873Z,13.50
2022-11-17T00:31:42.975Z,13.50
2022-11-17T00:34:28.464Z,13.50
2022-11-17T00:37:15.619Z,13.40
2022-11-17T00:40:01.523Z,13.40
2022-11-17T00:42:47.355Z,13.40
2022-11-17T00:45:32.751Z,13.40
2022-11-17T00:48:18.278Z,13.30
2022-11-17T00:51:05.274Z,13.30
2022-11-17T00:53:51.100Z,13.30
2022-11-17T00:56:36.846Z,13.30
2022-11-17T00:59:22.741Z,13.30
2022-11-17T01:02:08.007Z,13.20
2022-11-17T01:04:53.472Z,13.30
2022-11-17T01:07:38.897Z,13.20
2022-11-17T01:10:24.318Z,13.20
2022-11-17T01:13:09.881Z,13.10
2022-11-17T01:15:55.330Z,13.20
2022-11-17T01:18:41.376Z,13.10
2022-11-17T01:21:28.603Z,13.10
2022-11-17T01:24:16.350Z,13.10
2022-11-17T01:27:02.059Z,13.10
2022-11-17T01:29:47.930Z,13.00
2022-11-17T01:32:33.472Z,13.10
2022-11-17T01:35:19.003Z,13.00
2022-11-17T01:38:04.363Z,13.00
2022-11-17T01:40:49.825Z,13.00
2022-11-17T01:43:42.310Z,13.00
2022-11-17T01:46:32.519Z,13.00
2022-11-17T01:49:25.070Z,13.00
2022-11-17T01:52:11.641Z,13.00
2022-11-17T01:54:59.345Z,13.00
2022-11-17T01:58:02.842Z,13.00
2022-11-17T02:00:48.322Z,12.90
2022-11-17T02:03:35.482Z,13.00
2022-11-17T02:06:34.126Z,12.90
2022-11-17T02:09:21.112Z,12.90
2022-11-17T02:12:10.680Z,12.90
2022-11-17T02:14:56.575Z,12.90
2022-11-17T02:17:43.361Z,12.80
2022-11-17T02:21:02.084Z,12.90
2022-11-17T02:24:06.663Z,12.90
2022-11-17T02:27:13.660Z,12.80
2022-11-17T02:30:10.658Z,12.80
2022-11-17T02:33:03.141Z,12.80
2022-11-17T02:35:58.161Z,12.80
2022-11-17T02:38:58.539Z,12.80
2022-11-17T02:42:07.943Z,12.80
2022-11-17T02:44:58.364Z,12.80
2022-11-17T02:47:48.487Z,12.80
2022-11-17T02:50:35.492Z,12.80
2022-11-17T02:53:24.187Z,12.70
2022-11-17T02:56:09.613Z,12.70
2022-11-17T02:59:01.702Z,12.70
2022-11-17T03:02:02.318Z,12.70
2022-11-17T03:05:08.636Z,12.70
2022-11-17T03:08:11.559Z,12.60
2022-11-17T03:11:00.117Z,12.60
2022-11-17T03:13:48.596Z,12.60
2022-11-17T03:16:53.576Z,12.60
2022-11-17T03:19:47.799Z,12.60
2022-11-17T03:23:07.207Z,12.60
2022-11-17T03:25:58.212Z,12.60
2022-11-17T03:28:46.516Z,12.60
2022-11-17T03:31:33.651Z,12.60
2022-11-17T03:34:24.469Z,12.60
2022-11-17T03:37:13.371Z,12.60
2022-11-17T03:40:04.638Z,12.60
2022-11-17T03:42:55.652Z,12.60
2022-11-17T03:45:46.638Z,12.60
2022-11-17T03:48:35.101Z,12.60
2022-11-17T03:51:25.178Z,12.50
2022-11-17T03:54:11.095Z,12.50
2022-11-17T03:57:14.027Z,12.50
2022-11-17T04:00:06.214Z,12.50
2022-11-17T04:03:01.231Z,12.50
2022-11-17T04:05:47.047Z,12.50
2022-11-17T04:08:32.921Z,12.50
2022-11-17T04:11:36.843Z,12.40
2022-11-17T04:14:40.754Z,12.40
2022-11-17T04:17:26.020Z,12.40
2022-11-17T04:20:11.702Z,12.30
2022-11-17T04:23:17.452Z,12.40
2022-11-17T04:26:21.518Z,12.40
2022-11-17T04:29:06.949Z,12.40
2022-11-17T04:31:52.685Z,12.40
2022-11-17T04:34:40.858Z,12.40
2022-11-17T04:37:26.610Z,12.30
2022-11-17T04:40:12.296Z,12.30
2022-11-17T04:42:58.020Z,12.30
2022-11-17T04:45:43.452Z,12.30
2022-11-17T04:48:29.103Z,12.30
2022-11-17T04:51:16.409Z,12.30
2022-11-17T04:54:03.540Z,12.30
2022-11-17T04:56:49.238Z,12.30
2022-11-17T04:59:34.750Z,12.20
2022-11-17T05:02:20.499Z,11.80
2022-11-17T05:05:06.370Z,12.10
2022-11-17T05:07:52.012Z,11.70
2022-11-17T05:10:57.082Z,11.80
2022-11-17T05:13:42.830Z,11.80
2022-11-17T05:16:46.542Z,11.80
2022-11-17T05:19:39.199Z,11.70
2022-11-17T05:22:43.183Z,11.80
2022-11-17T05:25:28.570Z,11.70
2022-11-17T05:28:14.104Z,11.80
2022-11-17T05:31:00.094Z,11.80
2022-11-17T05:33:45.407Z,11.80
2022-11-17T05:36:32.850Z,11.80
2022-11-17T05:39:18.427Z,11.70
2022-11-17T05:42:04.180Z,11.70
2022-11-17T05:44:49.694Z,11.70
2022-11-17T05:47:35.237Z,11.80
2022-11-17T05:50:20.604Z,11.70
2022-11-17T05:53:06.263Z,11.70
2022-11-17T05:56:01.960Z,11.70
2022-11-17T05:58:52.211Z,11.70
2022-11-17T06:01:43.889Z,11.60
2022-11-17T06:04:29.627Z,11.60
2022-11-17T06:07:16.007Z,11.60
2022-11-17T06:10:01.833Z,11.70
2022-11-17T06:12:47.882Z,11.70
2022-11-17T06:15:35.111Z,11.70
2022-11-17T06:18:26.266Z,11.70
2022-11-17T06:21:15.463Z,11.60
2022-11-17T06:24:02.679Z,11.70
2022-11-17T06:26:48.336Z,11.60
2022-11-17T06:29:34.762Z,11.60
2022-11-17T06:32:22.127Z,11.70
2022-11-17T06:35:10.092Z,11.70
2022-11-17T06:37:55.811Z,11.70
2022-11-17T06:40:41.570Z,11.70
2022-11-17T06:43:27.446Z,11.60
2022-11-17T06:46:13.013Z,11.60
2022-11-17T06:48:58.336Z,11.80
2022-11-17T06:51:45.447Z,11.60
2022-11-17T06:54:31.445Z,11.50
2022-11-17T06:57:16.855Z,11.50
2022-11-17T07:00:02.738Z,11.60
2022-11-17T07:02:48.449Z,11.60
2022-11-17T07:05:35.746Z,11.60
2022-11-17T07:08:22.729Z,11.60
2022-11-17T07:11:11.087Z,11.60
2022-11-17T07:13:58.282Z,11.60
2022-11-17T07:16:44.104Z,11.60
2022-11-17T07:19:29.617Z,11.50
2022-11-17T07:22:15.154Z,11.50
2022-11-17T07:25:00.691Z,11.50
2022-11-17T07:27:46.263Z,11.50
2022-11-17T07:30:31.957Z,11.60
2022-11-17T07:33:17.873Z,11.60
2022-11-17T07:36:12.073Z,11.60
2022-11-17T07:38:57.900Z,11.60
2022-11-17T07:41:43.623Z,11.60
2022-11-17T07:44:29.080Z,11.60
2022-11-17T07:47:14.749Z,11.60
2022-11-17T07:50:00.596Z,11.70
2022-11-17T07:52:48.637Z,12.10
2022-11-17T07:55:34.615Z,12.50
2022-11-17T07:58:20.339Z,12.80
2022-11-17T08:01:06.952Z,13.10
2022-11-17T08:03:52.746Z,13.40
2022-11-17T08:06:38.020Z,13.60
2022-11-17T08:09:23.535Z,13.80
2022-11-17T08:12:09.138Z,14.00
2022-11-17T08:14:54.474Z,14.10
2022-11-17T08:17:39.955Z,14.20
2022-11-17T08:20:27.757Z,14.30
2022-11-17T08:23:13.622Z,14.40
2022-11-17T08:26:00.202Z,14.50
2022-11-17T08:28:45.843Z,14.60
2022-11-17T08:31:31.403Z,14.70
2022-11-17T08:34:17.229Z,14.70
2022-11-17T08:37:02.806Z,14.80
2022-11-17T08:39:48.507Z,14.80
2022-11-17T08:42:33.968Z,14.80
2022-11-17T08:45:19.513Z,14.80
2022-11-17T08:48:07.452Z,14.80
2022-11-17T08:50:53.151Z,14.80
2022-11-17T08:53:38.733Z,14.90
2022-11-17T08:56:24.240Z,14.90
2022-11-17T08:59:12.749Z,14.90
2022-11-17T09:01:58.539Z,14.90
2022-11-17T09:04:46.157Z,14.90
2022-11-17T09:07:35.790Z,14.90
2022-11-17T09:10:21.746Z,14.90
2022-11-17T09:13:07.767Z,14.90
2022-11-17T09:15:53.235Z,15.00
2022-11-17T09:18:40.002Z,15.00
2022-11-17T09:21:27.272Z,15.00
2022-11-17T09:24:13.094Z,15.00
2022-11-17T09:26:58.658Z,15.00
2022-11-17T09:29:44.224Z,15.00
2022-11-17T09:32:29.686Z,15.00
2022-11-17T09:35:15.685Z,15.00
2022-11-17T09:38:04.033Z,15.10
2022-11-17T09:40:50.247Z,15.10
2022-11-17T09:43:38.996Z,15.10
2022-11-17T09:46:43.646Z,15.10
2022-11-17T09:49:58.922Z,15.20
2022-11-17T09:53:10.004Z,15.20
2022-11-17T09:56:01.044Z,15.20
2022-11-17T09:58:50.122Z,15.20
2022-11-17T10:01:36.124Z,15.20
2022-11-17T10:04:30.245Z,15.30
2022-11-17T10:07:16.570Z,15.30
2022-11-17T10:10:03.593Z,15.30
2022-11-17T10:12:55.550Z,15.30
2022-11-17T10:15:48.687Z,15.30
2022-11-17T10:18:39.262Z,15.30
2022-11-17T10:21:28.528Z,15.40
2022-11-17T10:24:42.420Z,15.40
2022-11-17T10:27:29.707Z,15.40
2022-11-17T10:30:25.875Z,15.40
2022-11-17T10:33:13.504Z,15.40
2022-11-17T10:35:59.411Z,15.40
2022-11-17T10:38:47.771Z,15.40
2022-11-17T10:41:40.797Z,15.40
2022-11-17T10:44:30.403Z,15.40
2022-11-17T10:47:31.624Z,15.40
2022-11-17T10:50:35.714Z,15.40
2022-11-17T10:53:46.497Z,15.50
2022-11-17T10:56:43.081Z,15.50
2022-11-17T10:59:30.303Z,15.50
2022-11-17T11:02:41.846Z,15.50
2022-11-17T11:05:27.613Z,15.50
2022-11-17T11:08:22.322Z,15.50
2022-11-17T11:11:21.666Z,15.50
2022-11-17T11:14:31.509Z,15.50
2022-11-17T11:17:18.129Z,15.50
2022-11-17T11:20:04.613Z,15.60
2022-11-17T11:23:09.017Z,15.50
2022-11-17T11:26:28.816Z,15.50
2022-11-17T11:29:32.888Z,15.50
2022-11-17T11:32:31.873Z,15.60
2022-11-17T11:35:35.453Z,15.60
2022-11-17T11:38:55.494Z,15.60
2022-11-17T11:41:52.949Z,15.60
2022-11-17T11:44:56.653Z,15.60
2022-11-17T11:48:04.089Z,15.60
2022-11-17T11:50:55.347Z,15.60
2022-11-17T11:53:46.640Z,15.70
2022-11-17T11:56:41.973Z,15.60
2022-11-17T11:59:50.183Z,14.30
2022-11-17T12:02:41.954Z,15.70
2022-11-17T12:06:31.358Z,15.70
2022-11-17T12:09:29.699Z,15.70
2022-11-17T12:12:23.130Z,14.90
2022-11-17T12:15:31.624Z,15.70
2022-11-17T12:18:17.420Z,15.70
2022-11-17T12:21:21.621Z,15.70
2022-11-17T12:24:17.125Z,15.80
2022-11-17T12:27:34.200Z,15.80
2022-11-17T12:30:35.409Z,15.80
2022-11-17T12:33:21.761Z,15.80
2022-11-17T12:36:30.479Z,15.80
2022-11-17T12:39:53.853Z,15.80
2022-11-17T12:43:17.815Z,15.80
2022-11-17T12:46:21.730Z,15.80
2022-11-17T12:49:19.067Z,15.80
2022-11-17T12:52:12.355Z,15.80
2022-11-17T12:55:36.200Z,15.80
2022-11-17T12:58:42.637Z,15.80
2022-11-17T13:01:36.032Z,15.80
2022-11-17T13:04:34.220Z,15.80
2022-11-17T13:07:22.727Z,15.80
2022-11-17T13:10:27.302Z,15.80
2022-11-17T13:13:19.444Z,15.80
2022-11-17T13:16:05.146Z,15.80
2022-11-17T13:18:50.745Z,15.90
2022-11-17T13:21:36.430Z,15.90
2022-11-17T13:24:34.134Z,15.90
2022-11-17T13:27:24.794Z,15.90
2022-11-17T13:30:23.089Z,15.90
2022-11-17T13:33:19.818Z,15.90
2022-11-17T13:36:08.843Z,15.90
2022-11-17T13:39:00.431Z,15.90
2022-11-17T13:41:46.681Z,15.90
2022-11-17T13:44:32.756Z,15.90
2022-11-17T13:47:38.314Z,15.90
2022-11-17T13:50:27.117Z,15.90
2022-11-17T13:53:12.931Z,16.00
2022-11-17T13:55:58.750Z,16.00
2022-11-17T13:58:49.002Z,16.00
2022-11-17T14:01:35.237Z,16.10
2022-11-17T14:04:23.596Z,16.10
2022-11-17T14:07:11.973Z,16.10
2022-11-17T14:10:22.691Z,16.10
2022-11-17T14:13:25.156Z,16.10
2022-11-17T14:16:40.440Z,16.20
2022-11-17T14:19:34.929Z,16.20
2022-11-17T14:22:27.732Z,16.20
2022-11-17T14:25:16.827Z,16.20
2022-11-17T14:28:02.638Z,16.20
2022-11-17T14:30:49.488Z,16.20
2022-11-17T14:33:35.217Z,16.20
2022-11-17T14:36:21.386Z,16.20
2022-11-17T14:39:14.801Z,16.20
2022-11-17T14:42:00.341Z,16.20
2022-11-17T14:44:45.909Z,16.20
2022-11-17T14:47:31.836Z,16.20
2022-11-17T14:50:18.582Z,16.20
2022-11-17T14:53:04.742Z,16.30
2022-11-17T14:55:50.612Z,16.20
2022-11-17T14:58:36.889Z,16.20
2022-11-17T15:01:29.531Z,16.20
2022-11-17T15:04:49.027Z,16.20
2022-11-17T15:07:24.093Z,16.20
2022-11-17T15:10:10.570Z,16.20
2022-11-17T15:12:56.516Z,16.20
2022-11-17T15:15:42.470Z,16.20
2022-11-17T15:18:28.354Z,16.20
2022-11-17T15:21:15.995Z,16.20
2022-11-17T15:24:03.428Z,16.30
2022-11-17T15:26:49.327Z,16.30
2022-11-17T15:29:35.058Z,16.30
2022-11-17T15:32:20.597Z,16.30
2022-11-17T15:35:06.474Z,16.30
2022-11-17T15:37:51.887Z,16.30
2022-11-17T15:40:37.445Z,16.30
2022-11-17T15:43:29.892Z,16.30
2022-11-17T15:46:17.874Z,16.30
2022-11-17T15:49:04.005Z,16.30
2022-11-17T15:51:49.654Z,16.30
2022-11-17T15:54:35.196Z,16.30
2022-11-17T15:57:20.887Z,16.20
2022-11-17T16:00:07.558Z,16.20
2022-11-17T16:02:57.318Z,16.20
2022-11-17T16:05:45.177Z,16.20
2022-11-17T16:08:31.849Z,16.20
2022-11-17T16:11:17.606Z,16.30
2022-11-17T16:14:04.033Z,16.30
2022-11-17T16:16:49.759Z,16.30
2022-11-17T16:19:35.462Z,16.30
2022-11-17T16:22:21.595Z,16.30
2022-11-17T16:25:10.387Z,16.30
2022-11-17T16:27:55.723Z,16.30
2022-11-17T16:30:41.829Z,16.40
2022-11-17T16:33:27.699Z,16.40
2022-11-17T16:36:13.239Z,16.40
2022-11-17T16:39:01.508Z,16.40
2022-11-17T16:41:50.091Z,16.40
2022-11-17T16:44:35.663Z,16.40
2022-11-17T16:47:20.999Z,16.40
2022-11-17T16:50:07.054Z,16.40
2022-11-17T16:52:52.564Z,16.40
2022-11-17T16:55:38.736Z,16.40
2022-11-17T16:58:24.080Z,16.40
2022-11-17T17:01:15.357Z,16.40
2022-11-17T17:04:04.179Z,16.40
2022-11-17T17:06:49.858Z,16.40
2022-11-17T17:09:37.298Z,16.40
2022-11-17T17:12:23.053Z,16.40
2022-11-17T17:15:10.054Z,16.40
2022-11-17T17:17:55.554Z,16.40
2022-11-17T17:20:50.551Z,16.40
2022-11-17T17:23:35.999Z,16.40
2022-11-17T17:26:23.192Z,16.40
2022-11-17T17:29:09.926Z,16.40
2022-11-17T17:31:55.461Z,16.40
2022-11-17T17:34:40.993Z,16.40
2022-11-17T17:37:26.299Z,16.40
2022-11-17T17:40:12.150Z,16.40
2022-11-17T17:42:57.771Z,16.40
2022-11-17T17:45:43.110Z,16.40
2022-11-17T17:48:31.154Z,16.40
2022-11-17T17:51:19.382Z,16.40
2022-11-17T17:54:05.058Z,16.40
2022-11-17T17:56:51.132Z,16.40
2022-11-17T17:59:36.597Z,16.40
2022-11-17T18:02:21.978Z,16.40
2022-11-17T18:05:07.740Z,16.40
2022-11-17T18:07:53.344Z,16.40
2022-11-17T18:10:39.097Z,16.40
2022-11-17T18:13:24.639Z,16.40
2022-11-17T18:16:16.877Z,16.40
2022-11-17T18:19:08.348Z,16.40
2022-11-17T18:21:53.946Z,16.40
2022-11-17T18:24:39.529Z,16.40
2022-11-17T18:27:25.127Z,16.40
2022-11-17T18:30:11.032Z,16.40
2022-11-17T18:33:02.688Z,16.40
2022-11-17T18:35:48.572Z,16.40
2022-11-17T18:38:37.404Z,16.40
2022-11-17T18:41:23.730Z,16.40
2022-11-17T18:44:12.738Z,16.40
2022-11-17T18:47:02.559Z,16.40
2022-11-17T18:49:48.709Z,16.40
2022-11-17T18:52:34.547Z,16.40
2022-11-17T18:55:19.973Z,16.40
2022-11-17T18:58:05.547Z,16.40
2022-11-17T19:00:51.040Z,16.40
2022-11-17T19:03:37.406Z,16.40
2022-11-17T19:06:24.946Z,16.40
2022-11-17T19:09:11.021Z,16.40
2022-11-17T19:11:56.587Z,16.40
2022-11-17T19:14:42.197Z,16.40
2022-11-17T19:17:27.716Z,16.40
2022-11-17T19:20:13.484Z,16.40
2022-11-17T19:22:59.046Z,16.40
2022-11-17T19:25:45.513Z,16.40
2022-11-17T19:28:31.354Z,16.30
2022-11-17T19:31:19.073Z,16.30
2022-11-17T19:34:05.058Z,16.30
2022-11-17T19:36:50.799Z,16.30
2022-11-17T19:39:36.338Z,16.40
2022-11-17T19:42:21.963Z,16.40
2022-11-17T19:45:08.644Z,16.40
2022-11-17T19:47:54.109Z,16.40
2022-11-17T19:50:39.775Z,16.40
2022-11-17T19:53:26.154Z,16.40
2022-11-17T19:56:11.793Z,16.40
2022-11-17T19:58:57.971Z,16.40
2022-11-17T20:01:43.503Z,16.40
2022-11-17T20:04:29.142Z,16.40
2022-11-17T20:07:14.870Z,16.40
2022-11-17T20:10:00.266Z,16.40
2022-11-17T20:12:46.504Z,16.40
2022-11-17T20:15:35.309Z,16.40
2022-11-17T20:18:20.909Z,16.40
2022-11-17T20:21:07.451Z,16.40
2022-11-17T20:23:55.913Z,16.40
2022-11-17T20:26:43.042Z,16.40
2022-11-17T20:29:28.647Z,16.40
2022-11-17T20:32:14.235Z,16.40
2022-11-17T20:34:59.711Z,16.40
2022-11-17T20:37:45.172Z,16.40
2022-11-17T20:40:32.088Z,16.40
2022-11-17T20:43:17.786Z,16.40
2022-11-17T20:46:03.772Z,16.40
2022-11-17T20:48:49.604Z,16.40
2022-11-17T20:51:35.240Z,16.40
2022-11-17T20:54:20.681Z,16.40
2022-11-17T20:57:06.183Z,16.40
2022-11-17T20:59:51.976Z,16.40
2022-11-17T21:02:37.414Z,16.40
2022-11-17T21:05:23.164Z,16.40
2022-11-17T21:08:09.084Z,16.40
2022-11-17T21:11:00.435Z,16.40
2022-11-17T21:13:45.967Z,16.40
2022-11-17T21:16:31.984Z,16.40
2022-11-17T21:19:18.075Z,16.40
2022-11-17T21:22:04.144Z,16.40
2022-11-17T21:24:49.885Z,16.40
2022-11-17T21:27:35.355Z,16.50
2022-11-17T21:30:22.044Z,16.40
2022-11-17T21:33:07.647Z,16.40
2022-11-17T21:36:00.181Z,16.40
2022-11-17T21:38:46.845Z,16.40
2022-11-17T21:41:38.461Z,16.40
2022-11-17T21:44:24.033Z,16.30
2022-11-17T21:47:09.753Z,15.80
2022-11-17T21:49:55.448Z,15.40
2022-11-17T21:52:40.993Z,15.00
2022-11-17T21:55:26.383Z,14.70
2022-11-17T21:58:11.887Z,14.50
2022-11-17T22:00:57.535Z,14.20
2022-11-17T22:03:43.577Z,14.00
2022-11-17T22:06:30.365Z,13.90
2022-11-17T22:09:19.436Z,13.80
2022-11-17T22:12:05.059Z,13.60
2022-11-17T22:14:50.814Z,13.50
2022-11-17T22:17:36.278Z,13.40
2022-11-17T22:20:22.115Z,13.30
2022-11-17T22:23:07.770Z,13.20
2022-11-17T22:25:58.125Z,13.20
2022-11-17T22:28:43.874Z,13.10
2022-11-17T22:31:29.334Z,13.00
2022-11-17T22:34:15.783Z,13.00
2022-11-17T22:37:01.353Z,13.00
2022-11-17T22:39:46.918Z,12.90
2022-11-17T22:42:32.385Z,12.90
2022-11-17T22:45:17.877Z,12.80
2022-11-17T22:48:03.838Z,12.80
2022-11-17T22:50:49.507Z,12.80
2022-11-17T22:53:35.396Z,12.70
2022-11-17T22:56:21.233Z,12.60
2022-11-17T22:59:07.156Z,12.50
2022-11-17T23:01:52.604Z,12.50
2022-11-17T23:04:38.208Z,12.50
2022-11-17T23:07:23.694Z,12.40
2022-11-17T23:10:10.246Z,12.50
2022-11-17T23:12:56.391Z,12.40
2022-11-17T23:15:42.127Z,12.40
2022-11-17T23:18:27.728Z,12.40
2022-11-17T23:21:13.902Z,12.40
2022-11-17T23:23:59.244Z,12.30
2022-11-17T23:26:44.875Z,12.30
2022-11-17T23:29:30.764Z,12.30
2022-11-17T23:32:16.296Z,12.20
2022-11-17T23:35:01.783Z,12.20
2022-11-17T23:37:47.477Z,12.10
2022-11-17T23:40:33.483Z,12.10
2022-11-17T23:43:19.167Z,12.10
2022-11-17T23:46:15.471Z,12.00
2022-11-17T23:49:00.973Z,12.00
2022-11-17T23:51:46.588Z,12.00
2022-11-17T23:54:31.963Z,12.00
2022-11-17T23:57:17.464Z,12.00
